createdAt,value
2017-03-01T00:00:25.522Z,98300
2017-03-01T00:01:25.048Z,98299
2017-03-01T00:02:25.625Z,98300
2017-03-01T00:03:25.655Z,98298
2017-03-01T00:04:25.123Z,98294
2017-03-01T00:05:25.680Z,98294
2017-03-01T00:06:25.267Z,98296
2017-03-01T00:07:25.310Z,98295
2017-03-01T00:08:25.321Z,98295
2017-03-01T00:09:25.349Z,98294
2017-03-01T00:10:25.392Z,98299
2017-03-01T00:11:25.489Z,98301
2017-03-01T00:12:25.511Z,98301
2017-03-01T00:13:26.098Z,98298
2017-03-01T00:14:26.085Z,98299
2017-03-01T00:15:25.576Z,98302
2017-03-01T00:16:26.159Z,98302
2017-03-01T00:17:25.622Z,98308
2017-03-01T00:18:26.255Z,98312
2017-03-01T00:19:26.267Z,98308
2017-03-01T00:20:26.296Z,98309
2017-03-01T00:21:25.806Z,98314
2017-03-01T00:22:26.435Z,98315
2017-03-01T00:23:26.418Z,98314
2017-03-01T00:24:26.012Z,98313
2017-03-01T00:25:26.505Z,98319
2017-03-01T00:26:26.637Z,98319
2017-03-01T00:27:26.629Z,98322
2017-03-01T00:28:26.133Z,98326
2017-03-01T00:29:26.771Z,98330
2017-03-01T00:30:26.840Z,98336
2017-03-01T00:31:26.955Z,98330
2017-03-01T00:32:26.950Z,98330
2017-03-01T00:33:26.400Z,98333
2017-03-01T00:34:26.457Z,98333
2017-03-01T00:35:26.537Z,98336
2017-03-01T00:36:26.583Z,98330
2017-03-01T00:37:27.157Z,98333
2017-03-01T00:38:27.232Z,98338
2017-03-01T00:39:26.691Z,98337
2017-03-01T00:40:26.727Z,98335
2017-03-01T00:41:26.819Z,98330
2017-03-01T00:42:26.819Z,98331
2017-03-01T00:43:27.433Z,98330
2017-03-01T00:44:27.522Z,98329
2017-03-01T00:45:26.997Z,98322
2017-03-01T00:46:27.046Z,98328
2017-03-01T00:47:27.659Z,98331
2017-03-01T00:48:27.190Z,98328
2017-03-01T00:49:27.846Z,98329
2017-03-01T00:50:27.390Z,98328
2017-03-01T00:51:27.944Z,98331
2017-03-01T00:52:27.446Z,98329
2017-03-01T00:53:28.065Z,98331
2017-03-01T00:54:28.147Z,98332
2017-03-01T00:55:28.163Z,98332
2017-03-01T00:56:27.745Z,98326
2017-03-01T00:57:27.746Z,98329
2017-03-01T00:58:27.910Z,98329
2017-03-01T00:59:27.871Z,98330
2017-03-01T01:00:28.417Z,98329
2017-03-01T01:01:28.512Z,98335
2017-03-01T01:02:27.968Z,98330
2017-03-01T01:03:27.999Z,98333
2017-03-01T01:04:28.663Z,98333
2017-03-01T01:05:28.132Z,98333
2017-03-01T01:06:28.247Z,98337
2017-03-01T01:07:28.330Z,98341
2017-03-01T01:08:28.895Z,98340
2017-03-01T01:09:28.316Z,98339
2017-03-01T01:10:28.936Z,98346
2017-03-01T01:11:28.919Z,98348
2017-03-01T01:12:28.978Z,98347
2017-03-01T01:13:28.419Z,98345
2017-03-01T01:14:29.043Z,98346
2017-03-01T01:15:28.552Z,98348
2017-03-01T01:16:29.120Z,98352
2017-03-01T01:17:29.192Z,98354
2017-03-01T01:18:29.197Z,98349
2017-03-01T01:19:29.312Z,98354
2017-03-01T01:20:28.874Z,98350
2017-03-01T01:21:28.860Z,98351
2017-03-01T01:22:28.871Z,98359
2017-03-01T01:23:29.099Z,98362
2017-03-01T01:24:28.971Z,98364
2017-03-01T01:25:29.594Z,98362
2017-03-01T01:26:29.113Z,98363
2017-03-01T01:27:29.696Z,98368
2017-03-01T01:28:29.131Z,98365
2017-03-01T01:29:29.918Z,98370
2017-03-01T01:30:29.305Z,98368
2017-03-01T01:31:29.869Z,98368
2017-03-01T01:32:29.351Z,98365
2017-03-01T01:33:30.017Z,98361
2017-03-01T01:34:30.079Z,98370
2017-03-01T01:35:29.815Z,98366
2017-03-01T01:36:29.675Z,98367
2017-03-01T01:37:29.734Z,98365
2017-03-01T01:38:30.330Z,98364
2017-03-01T01:39:30.375Z,98365
2017-03-01T01:40:30.556Z,98364
2017-03-01T01:41:30.498Z,98361
2017-03-01T01:42:30.040Z,98363
2017-03-01T01:43:30.091Z,98354
2017-03-01T01:44:30.124Z,98357
2017-03-01T01:45:30.192Z,98363
2017-03-01T01:46:30.944Z,98359
2017-03-01T01:47:30.790Z,98360
2017-03-01T01:48:30.860Z,98361
2017-03-01T01:49:30.287Z,98364
2017-03-01T01:50:30.346Z,98360
2017-03-01T01:51:30.906Z,98365
2017-03-01T01:52:31.172Z,98360
2017-03-01T01:53:30.484Z,98367
2017-03-01T01:54:31.053Z,98363
2017-03-01T01:55:31.130Z,98363
2017-03-01T01:56:30.630Z,98360
2017-03-01T01:57:30.714Z,98360
2017-03-01T01:58:31.450Z,98360
2017-03-01T01:59:30.723Z,98363
2017-03-01T02:00:30.736Z,98357
2017-03-01T02:01:31.339Z,98360
2017-03-01T02:02:31.403Z,98355
2017-03-01T02:03:30.962Z,98355
2017-03-01T02:04:31.285Z,98348
2017-03-01T02:05:31.578Z,98356
2017-03-01T02:06:31.682Z,98357
2017-03-01T02:07:31.150Z,98347
2017-03-01T02:08:31.739Z,98351
2017-03-01T02:09:31.268Z,98355
2017-03-01T02:10:32.017Z,98356
2017-03-01T02:11:32.514Z,98358
2017-03-01T02:12:31.482Z,98359
2017-03-01T02:13:31.539Z,98357
2017-03-01T02:14:32.204Z,98359
2017-03-01T02:15:32.241Z,98361
2017-03-01T02:16:32.488Z,98353
2017-03-01T02:17:31.755Z,98360
2017-03-01T02:18:32.301Z,98366
2017-03-01T02:19:32.433Z,98365
2017-03-01T02:20:32.422Z,98362
2017-03-01T02:21:31.895Z,98360
2017-03-01T02:22:32.112Z,98351
2017-03-01T02:23:32.527Z,98362
2017-03-01T02:24:32.039Z,98362
2017-03-01T02:25:32.060Z,98365
2017-03-01T02:26:32.710Z,98361
2017-03-01T02:27:32.732Z,98359
2017-03-01T02:28:32.936Z,98367
2017-03-01T02:29:32.784Z,98361
2017-03-01T02:30:32.340Z,98359
2017-03-01T02:31:32.422Z,98367
2017-03-01T02:32:32.420Z,98365
2017-03-01T02:33:32.494Z,98363
2017-03-01T02:34:33.235Z,98359
2017-03-01T02:35:32.609Z,98362
2017-03-01T02:36:32.646Z,98354
2017-03-01T02:37:33.224Z,98358
2017-03-01T02:38:33.294Z,98358
2017-03-01T02:39:33.349Z,98363
2017-03-01T02:40:32.978Z,98358
2017-03-01T02:41:32.866Z,98358
2017-03-01T02:42:33.454Z,98362
2017-03-01T02:43:33.460Z,98362
2017-03-01T02:44:32.998Z,98361
2017-03-01T02:45:33.020Z,98358
2017-03-01T02:46:33.327Z,98363
2017-03-01T02:47:33.642Z,98358
2017-03-01T02:48:33.189Z,98362
2017-03-01T02:49:33.155Z,98359
2017-03-01T02:50:33.746Z,98357
2017-03-01T02:51:33.812Z,98360
2017-03-01T02:52:33.514Z,98355
2017-03-01T02:53:33.962Z,98353
2017-03-01T02:54:34.049Z,98353
2017-03-01T02:55:33.484Z,98356
2017-03-01T02:56:34.035Z,98352
2017-03-01T02:57:34.055Z,98345
2017-03-01T02:58:34.244Z,98346
2017-03-01T02:59:33.552Z,98348
2017-03-01T03:00:34.176Z,98350
2017-03-01T03:01:34.212Z,98351
2017-03-01T03:02:34.354Z,98351
2017-03-01T03:03:33.859Z,98348
2017-03-01T03:04:34.055Z,98352
2017-03-01T03:05:34.504Z,98351
2017-03-01T03:06:34.631Z,98348
2017-03-01T03:07:34.667Z,98351
2017-03-01T03:08:34.157Z,98349
2017-03-01T03:09:34.172Z,98345
2017-03-01T03:10:34.869Z,98341
2017-03-01T03:11:34.246Z,98335
2017-03-01T03:12:34.252Z,98341
2017-03-01T03:13:34.851Z,98332
2017-03-01T03:14:34.333Z,98334
2017-03-01T03:15:34.362Z,98333
2017-03-01T03:16:35.123Z,98337
2017-03-01T03:17:34.559Z,98340
2017-03-01T03:18:35.126Z,98339
2017-03-01T03:19:35.130Z,98341
2017-03-01T03:20:34.683Z,98336
2017-03-01T03:21:35.278Z,98337
2017-03-01T03:22:34.910Z,98334
2017-03-01T03:23:35.409Z,98338
2017-03-01T03:24:35.383Z,98339
2017-03-01T03:25:35.478Z,98339
2017-03-01T03:26:34.959Z,98338
2017-03-01T03:27:35.017Z,98341
2017-03-01T03:28:35.209Z,98338
2017-03-01T03:29:35.120Z,98334
2017-03-01T03:30:35.145Z,98334
2017-03-01T03:31:35.815Z,98334
2017-03-01T03:32:35.295Z,98329
2017-03-01T03:33:35.381Z,98331
2017-03-01T03:34:35.616Z,98334
2017-03-01T03:35:35.510Z,98333
2017-03-01T03:36:36.083Z,98333
2017-03-01T03:37:36.204Z,98339
2017-03-01T03:38:36.241Z,98334
2017-03-01T03:39:36.227Z,98331
2017-03-01T03:40:36.393Z,98334
2017-03-01T03:41:35.818Z,98339
2017-03-01T03:42:35.889Z,98338
2017-03-01T03:43:35.847Z,98338
2017-03-01T03:44:36.411Z,98338
2017-03-01T03:45:35.852Z,98338
2017-03-01T03:46:36.024Z,98338
2017-03-01T03:47:35.934Z,98337
2017-03-01T03:48:36.030Z,98340
2017-03-01T03:49:36.110Z,98340
2017-03-01T03:50:36.705Z,98339
2017-03-01T03:51:36.661Z,98344
2017-03-01T03:52:36.427Z,98342
2017-03-01T03:53:36.253Z,98343
2017-03-01T03:54:36.821Z,98346
2017-03-01T03:55:36.292Z,98338
2017-03-01T03:56:36.343Z,98339
2017-03-01T03:57:36.904Z,98333
2017-03-01T03:58:36.621Z,98333
2017-03-01T03:59:37.107Z,98336
2017-03-01T04:00:37.132Z,98330
2017-03-01T04:01:36.643Z,98333
2017-03-01T04:02:37.309Z,98326
2017-03-01T04:03:36.837Z,98323
2017-03-01T04:04:37.560Z,98330
2017-03-01T04:05:36.928Z,98323
2017-03-01T04:06:37.506Z,98321
2017-03-01T04:07:37.503Z,98329
2017-03-01T04:08:37.547Z,98328
2017-03-01T04:09:37.055Z,98330
2017-03-01T04:10:37.278Z,98320
2017-03-01T04:11:37.136Z,98322
2017-03-01T04:12:37.195Z,98325
2017-03-01T04:13:37.806Z,98327
2017-03-01T04:14:37.305Z,98321
2017-03-01T04:15:37.421Z,98320
2017-03-01T04:16:37.638Z,98321
2017-03-01T04:17:37.468Z,98323
2017-03-01T04:18:37.557Z,98320
2017-03-01T04:19:38.152Z,98317
2017-03-01T04:20:37.694Z,98321
2017-03-01T04:21:37.786Z,98322
2017-03-01T04:22:38.510Z,98321
2017-03-01T04:23:38.359Z,98318
2017-03-01T04:24:38.407Z,98320
2017-03-01T04:25:37.907Z,98318
2017-03-01T04:26:37.949Z,98322
2017-03-01T04:27:38.476Z,98320
2017-03-01T04:28:38.648Z,98319
2017-03-01T04:29:38.534Z,98319
2017-03-01T04:30:38.618Z,98315
2017-03-01T04:31:38.635Z,98317
2017-03-01T04:32:38.132Z,98322
2017-03-01T04:33:38.219Z,98319
2017-03-01T04:34:38.999Z,98327
2017-03-01T04:35:38.916Z,98325
2017-03-01T04:36:38.456Z,98321
2017-03-01T04:37:39.060Z,98324
2017-03-01T04:38:38.575Z,98325
2017-03-01T04:39:39.174Z,98329
2017-03-01T04:40:39.324Z,98320
2017-03-01T04:41:39.230Z,98323
2017-03-01T04:42:38.789Z,98320
2017-03-01T04:43:38.834Z,98318
2017-03-01T04:44:39.381Z,98324
2017-03-01T04:45:38.889Z,98322
2017-03-01T04:46:39.065Z,98317
2017-03-01T04:47:38.870Z,98321
2017-03-01T04:48:38.959Z,98318
2017-03-01T04:49:39.529Z,98326
2017-03-01T04:50:39.527Z,98316
2017-03-01T04:51:38.982Z,98315
2017-03-01T04:52:39.804Z,98316
2017-03-01T04:53:39.032Z,98307
2017-03-01T04:54:39.597Z,98315
2017-03-01T04:55:39.105Z,98319
2017-03-01T04:56:39.167Z,98314
2017-03-01T04:57:39.764Z,98322
2017-03-01T04:58:39.940Z,98314
2017-03-01T04:59:39.809Z,98321
2017-03-01T05:00:39.278Z,98324
2017-03-01T05:01:39.301Z,98313
2017-03-01T05:02:39.907Z,98318
2017-03-01T05:03:39.439Z,98317
2017-03-01T05:04:39.645Z,98320
2017-03-01T05:05:39.455Z,98317
2017-03-01T05:06:39.465Z,98311
2017-03-01T05:07:39.997Z,98321
2017-03-01T05:08:39.573Z,98321
2017-03-01T05:09:39.703Z,98330
2017-03-01T05:10:40.010Z,98332
2017-03-01T05:11:39.811Z,98322
2017-03-01T05:12:39.753Z,98323
2017-03-01T05:13:39.781Z,98322
2017-03-01T05:14:39.869Z,98326
2017-03-01T05:15:39.997Z,98327
2017-03-01T05:16:40.550Z,98322
2017-03-01T05:17:40.066Z,98322
2017-03-01T05:18:40.682Z,98326
2017-03-01T05:19:40.734Z,98329
2017-03-01T05:20:40.231Z,98328
2017-03-01T05:21:40.794Z,98329
2017-03-01T05:22:40.282Z,98328
2017-03-01T05:23:40.910Z,98331
2017-03-01T05:24:40.378Z,98329
2017-03-01T05:25:40.967Z,98329
2017-03-01T05:26:41.050Z,98327
2017-03-01T05:27:40.540Z,98325
2017-03-01T05:28:40.581Z,98321
2017-03-01T05:29:40.637Z,98314
2017-03-01T05:30:41.235Z,98323
2017-03-01T05:31:40.787Z,98321
2017-03-01T05:32:41.354Z,98315
2017-03-01T05:33:41.423Z,98325
2017-03-01T05:34:41.470Z,98325
2017-03-01T05:35:41.606Z,98325
2017-03-01T05:36:41.104Z,98326
2017-03-01T05:37:41.731Z,98335
2017-03-01T05:38:41.167Z,98335
2017-03-01T05:39:41.697Z,98337
2017-03-01T05:40:41.735Z,98332
2017-03-01T05:41:41.714Z,98332
2017-03-01T05:42:41.723Z,98335
2017-03-01T05:43:41.797Z,98341
2017-03-01T05:44:41.356Z,98344
2017-03-01T05:45:41.904Z,98345
2017-03-01T05:46:41.720Z,98343
2017-03-01T05:47:42.026Z,98333
2017-03-01T05:48:41.618Z,98347
2017-03-01T05:49:41.709Z,98342
2017-03-01T05:50:41.772Z,98335
2017-03-01T05:51:42.328Z,98343
2017-03-01T05:52:42.128Z,98345
2017-03-01T05:53:41.843Z,98345
2017-03-01T05:54:42.619Z,98345
2017-03-01T05:55:42.037Z,98347
2017-03-01T05:56:42.644Z,98355
2017-03-01T05:57:42.097Z,98357
2017-03-01T05:58:42.208Z,98359
2017-03-01T05:59:42.272Z,98367
2017-03-01T06:00:42.789Z,98362
2017-03-01T06:01:42.864Z,98371
2017-03-01T06:02:42.443Z,98367
2017-03-01T06:03:42.942Z,98364
2017-03-01T06:04:43.041Z,98367
2017-03-01T06:05:42.519Z,98368
2017-03-01T06:06:43.147Z,98368
2017-03-01T06:07:43.211Z,98373
2017-03-01T06:08:43.283Z,98379
2017-03-01T06:09:43.383Z,98381
2017-03-01T06:10:43.365Z,98380
2017-03-01T06:11:42.948Z,98383
2017-03-01T06:12:43.503Z,98389
2017-03-01T06:13:42.998Z,98394
2017-03-01T06:14:43.547Z,98394
2017-03-01T06:15:43.578Z,98399
2017-03-01T06:16:43.651Z,98397
2017-03-01T06:17:43.695Z,98404
2017-03-01T06:18:43.201Z,98399
2017-03-01T06:19:43.200Z,98413
2017-03-01T06:20:43.870Z,98418
2017-03-01T06:21:43.875Z,98415
2017-03-01T06:22:43.376Z,98417
2017-03-01T06:23:43.336Z,98412
2017-03-01T06:24:43.917Z,98413
2017-03-01T06:25:43.980Z,98419
2017-03-01T06:26:43.398Z,98420
2017-03-01T06:27:44.007Z,98426
2017-03-01T06:28:44.040Z,98433
2017-03-01T06:29:43.489Z,98425
2017-03-01T06:30:44.032Z,98430
2017-03-01T06:31:43.634Z,98438
2017-03-01T06:32:44.214Z,98433
2017-03-01T06:33:44.237Z,98434
2017-03-01T06:34:43.733Z,98436
2017-03-01T06:35:44.319Z,98431
2017-03-01T06:36:44.379Z,98430
2017-03-01T06:37:44.440Z,98435
2017-03-01T06:38:44.506Z,98443
2017-03-01T06:39:44.552Z,98431
2017-03-01T06:40:44.064Z,98434
2017-03-01T06:41:44.658Z,98433
2017-03-01T06:42:44.085Z,98438
2017-03-01T06:43:44.735Z,98436
2017-03-01T06:44:44.154Z,98442
2017-03-01T06:45:44.233Z,98444
2017-03-01T06:46:44.328Z,98449
2017-03-01T06:47:44.933Z,98449
2017-03-01T06:48:44.402Z,98450
2017-03-01T06:49:45.052Z,98461
2017-03-01T06:50:44.626Z,98454
2017-03-01T06:51:45.281Z,98462
2017-03-01T06:52:44.772Z,98461
2017-03-01T06:53:45.294Z,98464
2017-03-01T06:54:44.788Z,98462
2017-03-01T06:55:44.799Z,98460
2017-03-01T06:56:44.905Z,98457
2017-03-01T06:57:44.942Z,98457
2017-03-01T06:58:45.455Z,98465
2017-03-01T06:59:45.568Z,98461
2017-03-01T07:00:45.127Z,98458
2017-03-01T07:01:45.649Z,98466
2017-03-01T07:02:45.220Z,98467
2017-03-01T07:03:45.289Z,98468
2017-03-01T07:04:45.340Z,98464
2017-03-01T07:05:45.373Z,98468
2017-03-01T07:06:45.909Z,98470
2017-03-01T07:07:45.997Z,98468
2017-03-01T07:08:46.084Z,98473
2017-03-01T07:09:46.299Z,98475
2017-03-01T07:10:45.670Z,98478
2017-03-01T07:11:45.740Z,98485
2017-03-01T07:12:45.810Z,98486
2017-03-01T07:13:45.887Z,98487
2017-03-01T07:14:45.912Z,98483
2017-03-01T07:15:46.047Z,98488
2017-03-01T07:16:46.112Z,98479
2017-03-01T07:17:46.652Z,98482
2017-03-01T07:18:46.665Z,98482
2017-03-01T07:19:46.251Z,98477
2017-03-01T07:20:46.814Z,98488
2017-03-01T07:21:46.912Z,98486
2017-03-01T07:22:46.419Z,98484
2017-03-01T07:23:46.467Z,98483
2017-03-01T07:24:47.082Z,98491
2017-03-01T07:25:46.513Z,98501
2017-03-01T07:26:46.531Z,98500
2017-03-01T07:27:46.579Z,98505
2017-03-01T07:28:47.125Z,98499
2017-03-01T07:29:46.724Z,98501
2017-03-01T07:30:47.274Z,98510
2017-03-01T07:31:46.761Z,98508
2017-03-01T07:32:47.333Z,98512
2017-03-01T07:33:47.379Z,98511
2017-03-01T07:34:47.422Z,98511
2017-03-01T07:35:46.898Z,98503
2017-03-01T07:36:47.513Z,98512
2017-03-01T07:37:47.543Z,98512
2017-03-01T07:38:47.540Z,98522
2017-03-01T07:39:46.995Z,98523
2017-03-01T07:40:47.596Z,98532
2017-03-01T07:41:47.119Z,98531
2017-03-01T07:42:47.150Z,98546
2017-03-01T07:43:47.670Z,98530
2017-03-01T07:44:47.732Z,98537
2017-03-01T07:45:47.295Z,98539
2017-03-01T07:46:47.919Z,98543
2017-03-01T07:47:47.422Z,98549
2017-03-01T07:48:47.489Z,98551
2017-03-01T07:49:47.513Z,98547
2017-03-01T07:50:48.133Z,98549
2017-03-01T07:51:48.191Z,98556
2017-03-01T07:52:48.207Z,98566
2017-03-01T07:53:48.247Z,98561
2017-03-01T07:54:47.762Z,98554
2017-03-01T07:55:47.811Z,98570
2017-03-01T07:56:48.601Z,98560
2017-03-01T07:57:48.436Z,98577
2017-03-01T07:58:48.490Z,98580
2017-03-01T07:59:48.023Z,98573
2017-03-01T08:00:48.627Z,98579
2017-03-01T08:01:48.154Z,98582
2017-03-01T08:02:48.348Z,98581
2017-03-01T08:03:48.821Z,98583
2017-03-01T08:04:48.896Z,98591
2017-03-01T08:05:48.368Z,98594
2017-03-01T08:06:48.950Z,98589
2017-03-01T08:07:49.048Z,98588
2017-03-01T08:08:49.278Z,98593
2017-03-01T08:09:48.554Z,98596
2017-03-01T08:10:48.636Z,98611
2017-03-01T08:11:48.602Z,98605
2017-03-01T08:12:49.206Z,98607
2017-03-01T08:13:49.333Z,98608
2017-03-01T08:14:49.553Z,98615
2017-03-01T08:15:48.898Z,98616
2017-03-01T08:16:49.483Z,98619
2017-03-01T08:17:49.507Z,98626
2017-03-01T08:18:49.603Z,98624
2017-03-01T08:19:49.143Z,98632
2017-03-01T08:20:49.926Z,98624
2017-03-01T08:21:49.204Z,98634
2017-03-01T08:22:49.250Z,98623
2017-03-01T08:23:49.321Z,98627
2017-03-01T08:24:49.895Z,98634
2017-03-01T08:25:49.917Z,98649
2017-03-01T08:26:49.617Z,98641
2017-03-01T08:27:49.549Z,98644
2017-03-01T08:28:49.561Z,98646
2017-03-01T08:29:50.204Z,98650
2017-03-01T08:30:50.262Z,98651
2017-03-01T08:31:49.734Z,98656
2017-03-01T08:32:50.469Z,98667
2017-03-01T08:33:49.847Z,98658
2017-03-01T08:34:50.607Z,98663
2017-03-01T08:35:49.928Z,98663
2017-03-01T08:36:49.992Z,98654
2017-03-01T08:37:50.632Z,98664
2017-03-01T08:38:50.872Z,98670
2017-03-01T08:39:50.206Z,98669
2017-03-01T08:40:50.781Z,98668
2017-03-01T08:41:50.876Z,98666
2017-03-01T08:42:50.433Z,98666
2017-03-01T08:43:51.048Z,98663
2017-03-01T08:44:50.661Z,98667
2017-03-01T08:45:50.543Z,98676
2017-03-01T08:46:50.556Z,98662
2017-03-01T08:47:51.157Z,98674
2017-03-01T08:48:51.214Z,98673
2017-03-01T08:49:51.300Z,98679
2017-03-01T08:50:51.637Z,98685
2017-03-01T08:51:50.886Z,98678
2017-03-01T08:52:51.433Z,98683
2017-03-01T08:53:50.969Z,98689
2017-03-01T08:54:51.485Z,98692
2017-03-01T08:55:51.579Z,98692
2017-03-01T08:56:51.316Z,98696
2017-03-01T08:57:51.682Z,98697
2017-03-01T08:58:51.171Z,98691
2017-03-01T08:59:51.830Z,98692
2017-03-01T09:00:51.848Z,98694
2017-03-01T09:01:51.322Z,98705
2017-03-01T09:02:51.659Z,98698
2017-03-01T09:03:51.398Z,98701
2017-03-01T09:04:52.024Z,98699
2017-03-01T09:05:51.544Z,98704
2017-03-01T09:06:51.632Z,98701
2017-03-01T09:07:52.266Z,98718
2017-03-01T09:08:51.929Z,98706
2017-03-01T09:09:52.316Z,98721
2017-03-01T09:10:51.797Z,98712
2017-03-01T09:11:52.441Z,98730
2017-03-01T09:12:52.514Z,98717
2017-03-01T09:13:52.517Z,98723
2017-03-01T09:14:52.791Z,98724
2017-03-01T09:15:52.073Z,98712
2017-03-01T09:16:52.657Z,98719
2017-03-01T09:17:52.123Z,98726
2017-03-01T09:18:52.224Z,98720
2017-03-01T09:19:53.298Z,98722
2017-03-01T09:20:52.460Z,98731
2017-03-01T09:21:53.546Z,98723
2017-03-01T09:22:52.372Z,98730
2017-03-01T09:23:53.034Z,98720
2017-03-01T09:24:53.081Z,98723
2017-03-01T09:25:52.579Z,98730
2017-03-01T09:26:53.412Z,98725
2017-03-01T09:27:53.247Z,98726
2017-03-01T09:28:52.816Z,98730
2017-03-01T09:29:52.845Z,98736
2017-03-01T09:30:52.864Z,98736
2017-03-01T09:31:53.482Z,98739
2017-03-01T09:32:53.554Z,98743
2017-03-01T09:33:53.084Z,98731
2017-03-01T09:34:53.185Z,98734
2017-03-01T09:35:53.708Z,98747
2017-03-01T09:36:53.191Z,98743
2017-03-01T09:37:53.804Z,98750
2017-03-01T09:38:53.379Z,98747
2017-03-01T09:39:53.390Z,98752
2017-03-01T09:40:53.425Z,98760
2017-03-01T09:41:54.061Z,98753
2017-03-01T09:42:54.145Z,98759
2017-03-01T09:43:53.588Z,98756
2017-03-01T09:44:53.722Z,98762
2017-03-01T09:45:54.228Z,98762
2017-03-01T09:46:54.305Z,98774
2017-03-01T09:47:53.885Z,98772
2017-03-01T09:48:53.982Z,98762
2017-03-01T09:49:54.058Z,98766
2017-03-01T09:50:54.655Z,98770
2017-03-01T09:51:54.694Z,98771
2017-03-01T09:52:54.726Z,98774
2017-03-01T09:53:55.412Z,98783
2017-03-01T09:54:55.380Z,98783
2017-03-01T09:55:54.840Z,98786
2017-03-01T09:56:55.500Z,98802
2017-03-01T09:57:54.878Z,98791
2017-03-01T09:58:54.968Z,98791
2017-03-01T09:59:55.042Z,98795
2017-03-01T10:00:56.256Z,98784
2017-03-01T10:01:54.634Z,98789
2017-03-01T10:02:55.426Z,98801
2017-03-01T10:03:56.596Z,98804
2017-03-01T10:04:55.346Z,98812
2017-03-01T10:05:55.395Z,98813
2017-03-01T10:06:54.923Z,98819
2017-03-01T10:07:55.443Z,98822
2017-03-01T10:08:55.518Z,98814
2017-03-01T10:09:55.496Z,98819
2017-03-01T10:10:56.569Z,98813
2017-03-01T10:11:55.165Z,98819
2017-03-01T10:12:55.718Z,98809
2017-03-01T10:13:55.914Z,98815
2017-03-01T10:14:55.311Z,98823
2017-03-01T10:15:55.286Z,98821
2017-03-01T10:16:55.333Z,98820
2017-03-01T10:17:55.384Z,98818
2017-03-01T10:18:55.443Z,98821
2017-03-01T10:19:56.261Z,98817
2017-03-01T10:20:55.664Z,98828
2017-03-01T10:21:56.304Z,98833
2017-03-01T10:22:55.831Z,98828
2017-03-01T10:23:55.878Z,98845
2017-03-01T10:24:55.960Z,98844
2017-03-01T10:25:56.020Z,98843
2017-03-01T10:26:56.608Z,98843
2017-03-01T10:27:56.134Z,98844
2017-03-01T10:28:56.209Z,98856
2017-03-01T10:29:56.277Z,98871
2017-03-01T10:30:56.468Z,98852
2017-03-01T10:31:56.292Z,98870
2017-03-01T10:32:56.340Z,98861
2017-03-01T10:33:56.408Z,98849
2017-03-01T10:34:56.431Z,98856
2017-03-01T10:35:57.106Z,98855
2017-03-01T10:37:57.194Z,98862
2017-03-01T10:38:56.716Z,98861
2017-03-01T10:39:57.343Z,98852
2017-03-01T10:40:57.368Z,98859
2017-03-01T10:41:57.440Z,98858
2017-03-01T10:42:57.542Z,98854
2017-03-01T10:43:57.072Z,98867
2017-03-01T10:44:57.625Z,98858
2017-03-01T10:45:57.647Z,98866
2017-03-01T10:46:57.771Z,98872
2017-03-01T10:47:57.828Z,98865
2017-03-01T10:48:57.336Z,98877
2017-03-01T10:49:57.373Z,98872
2017-03-01T10:50:58.035Z,98873
2017-03-01T10:51:58.075Z,98879
2017-03-01T10:52:58.131Z,98879
2017-03-01T10:53:58.137Z,98876
2017-03-01T10:54:58.196Z,98860
2017-03-01T10:55:58.364Z,98877
2017-03-01T10:56:58.305Z,98879
2017-03-01T10:57:57.853Z,98881
2017-03-01T10:58:58.516Z,98869
2017-03-01T10:59:58.535Z,98874
2017-03-01T11:00:58.052Z,98871
2017-03-01T11:01:58.158Z,98862
2017-03-01T11:02:58.836Z,98869
2017-03-01T11:03:58.858Z,98860
2017-03-01T11:04:58.383Z,98862
2017-03-01T11:05:59.018Z,98872
2017-03-01T11:06:59.049Z,98861
2017-03-01T11:07:58.569Z,98873
2017-03-01T11:08:59.126Z,98863
2017-03-01T11:09:59.166Z,98881
2017-03-01T11:10:59.240Z,98872
2017-03-01T11:11:58.725Z,98874
2017-03-01T11:13:00.021Z,98869
2017-03-01T11:13:59.431Z,98864
2017-03-01T11:14:58.873Z,98854
2017-03-01T11:15:58.945Z,98854
2017-03-01T11:16:59.625Z,98864
2017-03-01T11:18:00.852Z,98858
2017-03-01T11:19:01.060Z,98851
2017-03-01T11:19:59.220Z,98861
2017-03-01T11:20:59.786Z,98869
2017-03-01T11:21:59.243Z,98861
2017-03-01T11:22:59.371Z,98857
2017-03-01T11:23:59.403Z,98876
2017-03-01T11:24:59.457Z,98857
2017-03-01T11:25:59.452Z,98873
2017-03-01T11:27:00.008Z,98872
2017-03-01T11:27:59.566Z,98877
2017-03-01T11:29:00.678Z,98872
2017-03-01T11:30:00.181Z,98879
2017-03-01T11:31:00.205Z,98860
2017-03-01T11:32:00.936Z,98869
2017-03-01T11:32:59.725Z,98880
2017-03-01T11:33:59.744Z,98874
2017-03-01T11:35:00.318Z,98876
2017-03-01T11:35:59.840Z,98873
2017-03-01T11:36:59.873Z,98876
2017-03-01T11:38:00.506Z,98879
2017-03-01T11:38:59.981Z,98883
2017-03-01T11:40:00.675Z,98884
2017-03-01T11:41:00.669Z,98881
2017-03-01T11:42:00.204Z,98872
2017-03-01T11:43:00.747Z,98876
2017-03-01T11:44:00.867Z,98879
2017-03-01T11:45:00.996Z,98878
2017-03-01T11:46:01.068Z,98876
2017-03-01T11:47:02.127Z,98879
2017-03-01T11:48:00.649Z,98875
2017-03-01T11:49:01.239Z,98872
2017-03-01T11:50:01.353Z,98875
2017-03-01T11:51:01.291Z,98870
2017-03-01T11:52:00.788Z,98868
2017-03-01T11:53:01.070Z,98871
2017-03-01T11:54:01.702Z,98875
2017-03-01T11:55:00.997Z,98875
2017-03-01T11:56:01.067Z,98870
2017-03-01T11:57:01.691Z,98866
2017-03-01T11:58:01.216Z,98862
2017-03-01T11:59:01.950Z,98881
2017-03-01T12:00:01.319Z,98875
2017-03-01T12:01:01.982Z,98857
2017-03-01T12:02:01.410Z,98875
2017-03-01T12:03:01.969Z,98877
2017-03-01T12:04:01.445Z,98864
2017-03-01T12:05:02.189Z,98874
2017-03-01T12:06:02.089Z,98871
2017-03-01T12:07:01.552Z,98866
2017-03-01T12:08:01.623Z,98876
2017-03-01T12:09:02.174Z,98876
2017-03-01T12:10:02.274Z,98883
2017-03-01T12:11:02.457Z,98883
2017-03-01T12:12:02.320Z,98877
2017-03-01T12:13:04.915Z,98888
2017-03-01T12:14:05.731Z,98884
2017-03-01T12:15:02.406Z,98883
2017-03-01T12:16:02.458Z,98886
2017-03-01T12:17:02.226Z,98876
2017-03-01T12:18:01.952Z,98888
2017-03-01T12:19:02.610Z,98883
2017-03-01T12:20:02.689Z,98883
2017-03-01T12:21:02.142Z,98881
2017-03-01T12:22:02.195Z,98886
2017-03-01T12:23:02.397Z,98881
2017-03-01T12:24:02.811Z,98891
2017-03-01T12:25:02.904Z,98888
2017-03-01T12:26:02.928Z,98891
2017-03-01T12:27:02.978Z,98893
2017-03-01T12:28:02.945Z,98901
2017-03-01T12:29:02.644Z,98889
2017-03-01T12:30:03.057Z,98882
2017-03-01T12:31:02.548Z,98888
2017-03-01T12:32:02.679Z,98888
2017-03-01T12:33:03.259Z,98889
2017-03-01T12:34:03.301Z,98884
2017-03-01T12:35:03.070Z,98878
2017-03-01T12:36:02.924Z,98872
2017-03-01T12:37:03.453Z,98888
2017-03-01T12:38:03.452Z,98883
2017-03-01T12:39:03.521Z,98885
2017-03-01T12:40:03.578Z,98889
2017-03-01T12:41:03.793Z,98887
2017-03-01T12:42:03.634Z,98899
2017-03-01T12:43:03.130Z,98888
2017-03-01T12:44:03.744Z,98894
2017-03-01T12:45:03.210Z,98894
2017-03-01T12:46:03.264Z,98890
2017-03-01T12:47:04.148Z,98882
2017-03-01T12:48:03.832Z,98897
2017-03-01T12:49:08.381Z,98890
2017-03-01T12:50:03.376Z,98887
2017-03-01T12:51:03.957Z,98908
2017-03-01T12:52:03.960Z,98901
2017-03-01T12:53:04.232Z,98895
2017-03-01T12:54:03.548Z,98892